Time;durP1;ratioP1;P1;durP2;ratioP2;P2;SDS_P1;SDS_P2;PMS_P1;PMS_P2;Temp;Humidity;BMP_temperature;BMP_pressure;BME280_temperature;BME280_humidity;BME280_pressure;Samples;Min_cycle;Max_cycle;Signal;HPM_P1;HPM_P2
2022/01/23 03:47:35;;;;;;;12.10;6.78;;;3.70;96.10;;;;;;4905960;24;20075;-81
2022/01/23 03:50:04;;;;;;;15.13;6.97;;;3.80;96.00;;;;;;4754753;30;20044;-81
2022/01/23 03:52:38;;;;;;;;;;;3.80;96.00;;;;;;4787884;30;20064;-81
2022/01/23 03:55:06;;;;;;;18.00;6.72;;;3.80;95.90;;;;;;4798958;30;19909;-81
2022/01/23 03:57:34;;;;;;;10.80;7.20;;;3.80;95.80;;;;;;4755252;30;20269;-81
2022/01/23 04:00:00;;;;;;;13.30;7.03;;;3.70;96.00;;;;;;4784091;30;20027;-81
2022/01/23 04:02:27;;;;;;;14.20;7.05;;;3.70;96.10;;;;;;4778119;30;20309;-81
2022/01/23 04:04:52;;;;;;;15.90;7.38;;;3.70;96.20;;;;;;4754442;30;20035;-81
2022/01/23 04:07:26;;;;;;;16.65;7.07;;;3.70;96.30;;;;;;4784114;30;20342;-81
2022/01/23 04:09:53;;;;;;;15.70;6.82;;;3.70;96.40;;;;;;4798637;30;20031;-80
2022/01/23 04:15:09;;;;;;;12.23;7.07;;;3.70;96.70;;;;;;4798648;30;20027;-81
2022/01/23 04:33:59;;;;;;;14.30;8.07;;;3.70;98.20;;;;;;4785606;30;20051;-81
2022/01/23 05:01:01;;;;;;;15.00;8.40;;;3.80;99.90;;;;;;4772614;30;20043;-80
2022/01/23 05:06:26;;;;;;;11.93;8.15;;;3.90;99.90;;;;;;4785797;30;20042;-81
2022/01/23 05:09:07;;;;;;;15.80;8.10;;;4.00;99.90;;;;;;4784573;30;20061;-81
2022/01/23 05:11:54;;;;;;;16.98;7.20;;;4.00;99.90;;;;;;4784633;30;20114;-81
2022/01/23 05:14:30;;;;;;;10.75;7.47;;;4.00;99.90;;;;;;4782981;30;20098;-81
2022/01/23 05:16:56;;;;;;;12.70;7.70;;;4.00;99.90;;;;;;4797317;30;20073;-81
2022/01/23 05:19:22;;;;;;;14.07;7.43;;;4.00;99.90;;;;;;4782502;30;20027;-81
2022/01/23 05:22:03;;;;;;;12.88;8.25;;;4.00;99.90;;;;;;4782872;30;20039;-83
2022/01/23 05:24:36;;;;;;;10.82;7.63;;;4.00;99.90;;;;;;4784309;30;20035;-82
2022/01/23 05:27:06;;;;;;;24.13;8.90;;;4.10;99.90;;;;;;4782470;30;20035;-82
2022/01/23 05:29:32;;;;;;;10.73;7.55;;;4.10;99.90;;;;;;4782601;30;20182;-82
2022/01/23 05:31:58;;;;;;;13.20;8.50;;;4.10;99.90;;;;;;4797495;30;20023;-82
2022/01/23 05:34:25;;;;;;;15.55;8.00;;;4.10;99.90;;;;;;4782432;30;20031;-82
2022/01/23 05:36:55;;;;;;;12.77;8.25;;;4.00;99.90;;;;;;4797154;30;20234;-82
2022/01/23 05:39:24;;;;;;;13.32;7.30;;;4.10;99.90;;;;;;4767336;30;20205;-82
2022/01/23 05:41:57;;;;;;;12.32;7.43;;;4.10;99.90;;;;;;4782410;30;20299;-81
2022/01/23 05:44:24;;;;;;;13.63;7.85;;;4.10;99.90;;;;;;4797214;30;20027;-82
2022/01/23 05:46:50;;;;;;;14.43;7.38;;;4.10;99.90;;;;;;4797967;29;20075;-81
2022/01/23 05:49:22;;;;;;;11.35;7.45;;;4.10;99.90;;;;;;4753873;30;20334;-81
2022/01/23 05:52:08;;;;;;;12.45;7.10;;;4.10;99.90;;;;;;4730889;30;20047;-81
2022/01/23 05:55:09;;;;;;;10.68;5.65;;;4.10;99.90;;;;;;4715182;30;20049;-81
2022/01/23 05:57:46;;;;;;;15.90;8.10;;;4.10;99.90;;;;;;4706490;30;20041;-81
2022/01/23 06:00:16;;;;;;;22.92;9.88;;;4.10;99.90;;;;;;4700866;30;20040;-81
2022/01/23 06:02:52;;;;;;;19.33;9.48;;;4.10;99.90;;;;;;4725245;30;20037;-82
2022/01/23 06:05:21;;;;;;;18.10;9.50;;;4.10;99.90;;;;;;4710781;30;20029;-82
2022/01/23 06:07:55;;;;;;;20.30;8.65;;;4.00;99.90;;;;;;4710940;30;20269;-81
2022/01/23 06:10:24;;;;;;;18.15;9.15;;;4.00;99.90;;;;;;4725300;30;20076;-82
2022/01/23 06:12:51;;;;;;;21.80;9.68;;;4.10;99.90;;;;;;4725254;30;20029;-81
2022/01/23 06:15:17;;;;;;;16.67;9.90;;;4.00;99.90;;;;;;4710575;30;20064;-82
2022/01/23 06:17:44;;;;;;;18.23;9.82;;;4.00;99.90;;;;;;4689612;30;20026;-82
2022/01/23 06:20:28;;;;;;;16.10;9.05;;;4.00;99.90;;;;;;4725417;30;20101;-81
2022/01/23 06:23:13;;;;;;;16.33;9.07;;;4.00;99.90;;;;;;4690658;30;20085;-82
2022/01/23 06:25:58;;;;;;;19.05;8.55;;;3.90;99.90;;;;;;4678481;30;20071;-82
2022/01/23 06:28:46;;;;;;;17.63;10.05;;;3.90;99.90;;;;;;4734656;29;20050;-81
2022/01/23 06:31:12;;;;;;;22.10;10.73;;;4.00;99.90;;;;;;4796290;30;20047;-81
2022/01/23 06:33:38;;;;;;;20.10;12.40;;;4.00;99.90;;;;;;4766415;30;20031;-82
2022/01/23 06:36:04;;;;;;;33.70;18.67;;;4.00;99.90;;;;;;4796379;30;20035;-82
2022/01/23 06:38:30;;;;;;;20.02;11.23;;;4.10;99.90;;;;;;4795836;30;20038;-82
2022/01/23 06:40:58;;;;;;;22.38;12.07;;;4.10;99.90;;;;;;4758362;30;20050;-82
2022/01/23 06:43:44;;;;;;;14.35;9.07;;;4.10;99.90;;;;;;4790419;30;20148;-82
2022/01/23 06:46:23;;;;;;;15.25;8.50;;;4.10;99.90;;;;;;4761081;30;20354;-81
2022/01/23 06:48:49;;;;;;;15.10;9.90;;;4.10;99.90;;;;;;4757466;30;20269;-82
2022/01/23 06:51:15;;;;;;;13.35;9.35;;;4.20;99.90;;;;;;4778327;30;20036;-81
2022/01/23 06:53:41;;;;;;;13.10;8.02;;;4.20;99.90;;;;;;4780153;30;20038;-82
2022/01/23 06:56:07;;;;;;;13.50;8.80;;;4.30;99.90;;;;;;4787414;30;20039;-82
2022/01/23 06:58:33;;;;;;;13.45;9.15;;;4.30;99.90;;;;;;4776497;29;20050;-82
2022/01/23 07:01:00;;;;;;;19.23;10.05;;;4.30;99.90;;;;;;4770935;30;20346;-82
2022/01/23 07:03:46;;;;;;;16.55;10.18;;;4.40;99.90;;;;;;4783102;30;20110;-82
2022/01/23 07:06:31;;;;;;;19.13;10.85;;;4.40;99.90;;;;;;4766837;30;20051;-82
2022/01/23 07:09:06;;;;;;;18.63;12.25;;;4.40;99.90;;;;;;4775516;30;20040;-81
2022/01/23 07:12:01;;;;;;;18.73;12.30;;;4.30;99.90;;;;;;4736260;30;20036;-81
2022/01/23 07:14:33;;;;;;;17.73;10.85;;;4.30;99.90;;;;;;4746332;30;20100;-82
2022/01/23 07:17:06;;;;;;;18.63;12.18;;;4.30;99.90;;;;;;4756529;30;20093;-81
2022/01/23 07:19:52;;;;;;;16.30;11.05;;;4.30;99.90;;;;;;4746246;30;20168;-82
2022/01/23 07:22:32;;;;;;;22.38;13.35;;;4.40;99.90;;;;;;4725793;30;20168;-81
2022/01/23 07:25:02;;;;;;;20.42;13.50;;;4.30;99.90;;;;;;4720837;30;20038;-81
2022/01/23 07:27:35;;;;;;;17.52;11.88;;;4.30;99.90;;;;;;4700932;30;20275;-81
2022/01/23 07:30:01;;;;;;;20.90;12.70;;;4.30;99.90;;;;;;4706531;30;20045;-81
2022/01/23 07:32:27;;;;;;;21.95;14.60;;;4.30;99.90;;;;;;4691604;30;20042;-82
2022/01/23 07:34:53;;;;;;;26.38;15.88;;;4.30;99.90;;;;;;4678502;30;20041;-81
2022/01/23 07:37:21;;;;;;;24.20;15.95;;;4.30;99.90;;;;;;4689134;30;20038;-81
2022/01/23 07:39:57;;;;;;;23.83;15.15;;;4.30;99.90;;;;;;4692508;30;20371;-82
2022/01/23 07:42:27;;;;;;;25.42;16.08;;;4.20;99.90;;;;;;4680373;30;20201;-82
2022/01/23 07:44:59;;;;;;;23.42;15.75;;;4.30;99.90;;;;;;4681222;30;20037;-81
2022/01/23 07:47:46;;;;;;;27.15;16.83;;;4.30;99.90;;;;;;4697671;30;20067;-82
2022/01/23 07:50:31;;;;;;;24.67;15.85;;;4.30;99.90;;;;;;4729345;30;20059;-82
2022/01/23 07:53:06;;;;;;;24.77;15.75;;;4.30;99.90;;;;;;4731301;30;20106;-82
2022/01/23 07:56:11;;;;;;;27.50;17.05;;;4.20;99.90;;;;;;4688545;30;20405;-82
2022/01/23 07:59:12;;;;;;;27.13;16.60;;;4.20;99.90;;;;;;4666994;30;20401;-82
2022/01/23 08:01:57;;;;;;;23.90;16.10;;;4.20;99.90;;;;;;4655874;30;20056;-82
2022/01/23 08:04:38;;;;;;;28.92;17.80;;;4.20;99.90;;;;;;4660489;30;20087;-83
2022/01/23 08:07:13;;;;;;;23.67;14.23;;;4.30;99.90;;;;;;4654948;30;20050;-83
2022/01/23 08:10:05;;;;;;;25.55;14.68;;;4.30;99.90;;;;;;4656633;30;20046;-83
2022/01/23 08:12:32;;;;;;;24.77;16.02;;;4.30;99.90;;;;;;4656062;30;20103;-82
2022/01/23 08:14:58;;;;;;;27.95;16.85;;;4.30;99.90;;;;;;4656697;30;20094;-82
2022/01/23 08:17:25;;;;;;;27.25;14.75;;;4.40;99.90;;;;;;4656700;30;20075;-83
2022/01/23 08:19:55;;;;;;;23.75;14.80;;;4.30;99.90;;;;;;4656448;30;20039;-82
2022/01/23 08:22:23;;;;;;;25.88;15.73;;;4.30;99.90;;;;;;4656846;30;20059;-83
2022/01/23 08:24:54;;;;;;;24.33;14.55;;;4.30;99.90;;;;;;4656597;30;20030;-82
2022/01/23 08:27:20;;;;;;;18.63;12.70;;;4.40;99.90;;;;;;4683233;30;20059;-82
2022/01/23 08:29:46;;;;;;;22.55;14.50;;;4.40;99.90;;;;;;4669863;30;20026;-82
2022/01/23 08:32:11;;;;;;;24.63;14.00;;;4.40;99.90;;;;;;4693101;30;20037;-82
2022/01/23 08:34:38;;;;;;;21.23;13.75;;;4.30;99.90;;;;;;4712954;30;20053;-83
2022/01/23 08:37:08;;;;;;;26.85;13.75;;;4.30;99.90;;;;;;4694555;30;20080;-82
2022/01/23 08:39:36;;;;;;;23.58;14.20;;;4.20;99.90;;;;;;4707976;30;20045;-82
2022/01/23 08:42:09;;;;;;;28.77;16.27;;;4.20;99.90;;;;;;4696222;30;20033;-82
2022/01/23 08:44:35;;;;;;;29.98;17.60;;;4.30;99.90;;;;;;4710603;30;20060;-82
2022/01/23 08:47:07;;;;;;;25.88;14.85;;;4.30;99.90;;;;;;4757853;30;20122;-82
2022/01/23 08:49:34;;;;;;;27.85;15.35;;;4.30;99.90;;;;;;4780655;30;20337;-81
2022/01/23 08:52:00;;;;;;;;;;;4.20;99.90;;;;;;4773419;30;20061;-82
2022/01/23 08:54:27;;;;;;;25.27;13.50;;;4.30;99.90;;;;;;4779527;30;19913;-82
2022/01/23 08:56:53;;;;;;;29.40;15.90;;;4.20;99.90;;;;;;4781448;30;20027;-81
2022/01/23 08:59:19;;;;;;;25.52;15.10;;;4.20;99.90;;;;;;4781600;30;20042;-82
2022/01/23 09:01:46;;;;;;;42.22;20.23;;;4.20;99.90;;;;;;4766726;30;20035;-82
2022/01/23 09:04:15;;;;;;;;;;;4.20;99.90;;;;;;4766582;30;20035;-82
2022/01/23 09:06:45;;;;;;;32.75;18.27;;;4.30;99.90;;;;;;4781060;30;19970;-82
2022/01/23 09:09:19;;;;;;;27.17;15.65;;;4.30;99.90;;;;;;4765860;30;20063;-82
2022/01/23 09:11:57;;;;;;;33.03;18.27;;;4.30;99.90;;;;;;4780276;30;20098;-82
2022/01/23 09:14:23;;;;;;;27.30;15.73;;;4.30;99.90;;;;;;4795428;30;20090;-82
2022/01/23 09:16:50;;;;;;;21.50;14.07;;;4.20;99.90;;;;;;4793381;30;20031;-82
2022/01/23 09:19:20;;;;;;;19.67;13.15;;;4.20;99.90;;;;;;4765667;30;20083;-82
2022/01/23 09:21:49;;;;;;;31.50;16.45;;;4.20;99.90;;;;;;4795838;29;20338;-81
2022/01/23 09:24:17;;;;;;;27.35;14.48;;;4.20;99.90;;;;;;4780220;30;20039;-82
2022/01/23 09:26:45;;;;;;;21.73;13.95;;;4.20;99.90;;;;;;4780792;30;20042;-82
2022/01/23 09:29:24;;;;;;;21.60;13.68;;;4.20;99.90;;;;;;4793422;30;20031;-82
2022/01/23 09:31:50;;;;;;;17.73;11.90;;;4.30;99.90;;;;;;4767484;30;20047;-82
2022/01/23 09:34:18;;;;;;;19.45;13.25;;;4.30;99.90;;;;;;4766935;30;20089;-82
2022/01/23 09:36:44;;;;;;;21.85;13.85;;;4.30;99.90;;;;;;4796512;30;20027;-82
2022/01/23 09:39:14;;;;;;;26.70;14.15;;;4.30;99.90;;;;;;4781876;30;20286;-82
2022/01/23 09:41:46;;;;;;;26.13;14.75;;;4.30;99.90;;;;;;4781736;30;20038;-82
2022/01/23 09:44:18;;;;;;;22.10;14.90;;;4.30;99.90;;;;;;4796455;30;20050;-82
2022/01/23 09:46:45;;;;;;;23.00;14.50;;;4.50;99.90;;;;;;4781387;30;20090;-82
2022/01/23 09:49:15;;;;;;;26.13;15.73;;;4.60;99.90;;;;;;4796441;30;20114;-82
2022/01/23 09:51:43;;;;;;;27.30;15.07;;;4.60;99.90;;;;;;4796016;30;20342;-82
2022/01/23 09:54:11;;;;;;;24.73;15.30;;;4.60;99.90;;;;;;4796234;30;20346;-82
2022/01/23 09:56:37;;;;;;;30.17;16.10;;;4.60;99.90;;;;;;4796321;30;20031;-82
2022/01/23 09:59:03;;;;;;;21.02;13.93;;;4.50;99.90;;;;;;4796404;30;20034;-82
2022/01/23 10:01:30;;;;;;;23.80;15.25;;;4.50;99.90;;;;;;4796015;30;20043;-82
2022/01/23 10:03:56;;;;;;;24.52;15.25;;;4.40;99.90;;;;;;4766636;30;20059;-82
2022/01/23 10:06:21;;;;;;;26.65;15.40;;;4.40;99.90;;;;;;4796262;30;20267;-82
2022/01/23 10:08:49;;;;;;;25.13;15.38;;;4.50;99.90;;;;;;4781674;30;20066;-82
2022/01/23 10:11:15;;;;;;;28.10;17.42;;;4.50;99.90;;;;;;4795978;30;20043;-82
2022/01/23 10:13:43;;;;;;;25.77;15.10;;;4.60;99.90;;;;;;4766419;30;20043;-82
2022/01/23 10:16:09;;;;;;;30.13;18.00;;;4.70;99.90;;;;;;4764687;30;20031;-82
2022/01/23 10:18:36;;;;;;;30.88;17.83;;;4.80;99.90;;;;;;4764472;30;20040;-82
2022/01/23 10:21:02;;;;;;;27.42;15.95;;;4.80;99.90;;;;;;4796081;30;20031;-81
2022/01/23 10:23:28;;;;;;;25.52;16.15;;;4.90;99.90;;;;;;4765912;30;20053;-82
2022/01/23 10:25:54;;;;;;;24.20;15.52;;;4.90;99.90;;;;;;4795721;30;20231;-82
2022/01/23 10:28:26;;;;;;;23.43;15.67;;;4.90;99.90;;;;;;4761907;30;20119;-82
2022/01/23 10:30:56;;;;;;;27.50;15.43;;;4.90;99.90;;;;;;4790771;30;20031;-81
2022/01/23 10:33:32;;;;;;;27.23;16.67;;;5.00;99.90;;;;;;4795432;30;20200;-81
2022/01/23 10:36:17;;;;;;;136.73;62.17;;;5.00;99.90;;;;;;4793751;30;20027;-81
2022/01/23 10:39:02;;;;;;;30.35;19.30;;;5.10;99.90;;;;;;4776209;30;20033;-81
2022/01/23 10:49:58;;;;;;;28.92;18.15;;;5.20;99.90;;;;;;4806202;29;20074;-81
2022/01/23 10:52:38;;;;;;;26.77;17.35;;;5.30;99.90;;;;;;4795223;30;20084;-82
2022/01/23 10:55:13;;;;;;;33.10;18.30;;;5.30;99.90;;;;;;4779608;30;20042;-82
2022/01/23 10:57:40;;;;;;;27.52;16.30;;;5.30;99.90;;;;;;4779923;30;20032;-82
2022/01/23 11:00:10;;;;;;;25.58;16.42;;;5.30;99.90;;;;;;4780262;30;20031;-82
2022/01/23 11:02:41;;;;;;;24.63;15.88;;;5.30;99.90;;;;;;4779872;30;20039;-82
2022/01/23 11:05:12;;;;;;;22.90;14.88;;;5.30;99.90;;;;;;4779722;30;20342;-81
2022/01/23 11:07:43;;;;;;;29.38;17.73;;;5.40;99.90;;;;;;4780305;30;20051;-81
2022/01/23 11:10:13;;;;;;;32.08;19.08;;;5.50;99.90;;;;;;4780421;30;20043;-81
2022/01/23 11:18:10;;;;;;;31.10;17.80;;;5.40;99.90;;;;;;4794854;30;20361;-81
2022/01/23 11:20:40;;;;;;;38.10;23.73;;;5.50;99.90;;;;;;4795010;30;20031;-81
2022/01/23 11:23:12;;;;;;;28.85;19.42;;;5.50;99.90;;;;;;4776654;30;20039;-81
2022/01/23 11:25:39;;;;;;;27.17;17.92;;;5.50;99.90;;;;;;4778404;30;20043;-82
2022/01/23 11:28:05;;;;;;;30.02;18.55;;;5.50;99.90;;;;;;4792737;30;20059;-82
2022/01/23 11:30:40;;;;;;;33.60;19.08;;;5.40;99.90;;;;;;4764835;30;20212;-82
2022/01/23 11:33:12;;;;;;;30.40;18.95;;;5.50;99.90;;;;;;4789471;30;20031;-81
2022/01/23 11:35:39;;;;;;;29.08;17.92;;;5.50;99.90;;;;;;4776000;30;20031;-81
2022/01/23 11:38:12;;;;;;;30.45;18.35;;;5.40;99.90;;;;;;4777837;30;20046;-81
2022/01/23 11:54:49;;;;;;;41.35;23.10;;;5.50;99.90;;;;;;4729696;30;20049;-82
2022/01/23 11:57:36;;;;;;;36.55;22.98;;;5.40;99.90;;;;;;4729546;30;20087;-82
2022/01/23 12:00:33;;;;;;;38.85;22.55;;;5.30;99.90;;;;;;4716247;30;20040;-82
2022/01/23 12:03:17;;;;;;;40.55;23.73;;;5.40;99.90;;;;;;4743189;30;20043;-83
2022/01/23 12:06:09;;;;;;;35.47;22.63;;;5.40;99.90;;;;;;4728377;30;20063;-82
2022/01/23 12:08:36;;;;;;;37.30;23.52;;;5.40;99.90;;;;;;4728554;30;20464;-82
2022/01/23 12:16:20;;;;;;;32.25;20.95;;;5.40;99.90;;;;;;4724545;30;20137;-82
2022/01/23 12:16:59;;;;;;;35.65;22.98;;;5.40;99.90;;;;;;4743485;30;20183;-81
2022/01/23 12:19:28;;;;;;;36.42;21.60;;;5.40;99.90;;;;;;4741340;30;20029;-81
2022/01/23 12:21:58;;;;;;;34.42;20.58;;;5.40;99.90;;;;;;4797374;30;20084;-82
2022/01/23 12:24:25;;;;;;;33.90;21.02;;;5.40;99.90;;;;;;4768148;30;20039;-82
2022/01/23 12:27:12;;;;;;;37.45;22.58;;;5.40;99.90;;;;;;4782909;30;20035;-82
2022/01/23 12:29:38;;;;;;;35.92;23.48;;;5.50;99.90;;;;;;4782626;30;20047;-82
2022/01/23 12:32:30;;;;;;;33.45;21.38;;;5.50;99.90;;;;;;4782801;30;20043;-81
2022/01/23 12:35:01;;;;;;;36.50;22.95;;;5.50;99.90;;;;;;4797485;30;20106;-81
2022/01/23 12:37:56;;;;;;;43.60;25.65;;;5.50;99.90;;;;;;4812514;29;20114;-82
2022/01/23 12:40:29;;;;;;;33.55;21.17;;;5.50;99.90;;;;;;4797513;30;20092;-82
2022/01/23 12:43:15;;;;;;;28.45;19.48;;;5.50;99.90;;;;;;4797534;30;20081;-82
2022/01/23 12:46:01;;;;;;;32.75;21.40;;;5.50;99.90;;;;;;4797413;29;20031;-82
2022/01/23 12:48:27;;;;;;;34.15;19.80;;;5.50;99.90;;;;;;4793119;30;20101;-82
2022/01/23 12:51:05;;;;;;;38.00;23.63;;;5.60;99.90;;;;;;4797418;30;20106;-82
2022/01/23 12:53:46;;;;;;;34.90;20.63;;;5.50;99.90;;;;;;4797260;30;20291;-82
2022/01/23 12:56:21;;;;;;;34.17;21.35;;;5.50;99.90;;;;;;4797129;30;20039;-81
2022/01/23 12:58:52;;;;;;;35.03;20.90;;;5.50;99.90;;;;;;4796733;29;20035;-82
2022/01/23 13:01:21;;;;;;;29.02;19.67;;;5.60;99.90;;;;;;4782417;30;20035;-82
2022/01/23 13:03:52;;;;;;;31.13;20.50;;;5.60;99.90;;;;;;4791306;29;20031;-82
2022/01/23 13:06:27;;;;;;;30.70;20.15;;;5.60;99.90;;;;;;4792624;30;20110;-82
2022/01/23 13:09:18;;;;;;;35.03;20.40;;;5.50;99.90;;;;;;4782082;30;20114;-82
2022/01/23 13:12:13;;;;;;;30.70;19.15;;;5.40;99.90;;;;;;4796828;30;20038;-82
2022/01/23 13:26:31;;;;;;;29.77;18.45;;;5.60;99.90;;;;;;4728060;30;20428;-81
2022/01/23 13:32:21;;;;;;;28.98;18.77;;;5.60;99.90;;;;;;4728098;30;20067;-81
2022/01/23 13:34:56;;;;;;;26.83;16.45;;;5.60;99.90;;;;;;4725123;30;20143;-81
2022/01/23 13:37:28;;;;;;;27.02;16.58;;;5.70;99.90;;;;;;4722049;30;20048;-81
2022/01/23 13:40:01;;;;;;;27.08;17.67;;;5.80;99.90;;;;;;4739331;30;20025;-81
2022/01/23 13:54:16;;;;;;;35.45;20.00;;;6.00;99.90;;;;;;4732344;30;20437;-82
2022/01/23 14:02:38;;;;;;;29.80;17.88;;;6.20;99.90;;;;;;4742354;30;20037;-82
2022/01/23 14:05:14;;;;;;;23.45;15.45;;;6.20;99.90;;;;;;4727634;30;20107;-82
2022/01/23 14:07:42;;;;;;;24.85;16.08;;;6.20;99.90;;;;;;4727522;30;20045;-82
2022/01/23 14:10:27;;;;;;;23.73;14.15;;;6.20;99.90;;;;;;4726737;30;20058;-82
2022/01/23 14:13:03;;;;;;;17.30;11.18;;;6.20;99.90;;;;;;4727657;30;20044;-82
2022/01/23 14:15:29;;;;;;;16.70;10.07;;;6.20;99.90;;;;;;4735841;30;20037;-82
2022/01/23 14:18:09;;;;;;;15.23;10.32;;;6.10;99.90;;;;;;4698605;30;20059;-82
2022/01/23 14:20:39;;;;;;;19.52;11.25;;;6.20;99.90;;;;;;4741970;30;20044;-82
2022/01/23 14:23:13;;;;;;;13.35;8.48;;;6.20;99.90;;;;;;4727372;30;20075;-82
2022/01/23 14:25:50;;;;;;;11.98;8.57;;;6.20;99.90;;;;;;4727433;30;20296;-82
2022/01/23 14:28:20;;;;;;;13.32;8.60;;;6.20;99.90;;;;;;4741884;30;20044;-82
2022/01/23 14:30:49;;;;;;;14.20;8.25;;;6.20;99.90;;;;;;4737898;30;20041;-82
2022/01/23 14:33:34;;;;;;;13.68;8.35;;;6.20;99.90;;;;;;4725775;30;20033;-82
2022/01/23 14:36:20;;;;;;;12.00;7.30;;;6.20;99.90;;;;;;4736460;30;20036;-82
2022/01/23 14:38:56;;;;;;;12.63;8.17;;;6.20;99.90;;;;;;4750655;30;20039;-82
2022/01/23 14:41:24;;;;;;;11.20;7.85;;;6.20;99.90;;;;;;4780964;30;20088;-82
2022/01/23 14:43:51;;;;;;;11.10;7.45;;;6.20;99.90;;;;;;4795839;30;20039;-82
2022/01/23 14:46:17;;;;;;;13.35;8.00;;;6.20;99.90;;;;;;4780664;30;20071;-82
2022/01/23 14:48:48;;;;;;;12.43;8.10;;;6.20;99.90;;;;;;4796829;30;20106;-83
2022/01/23 14:51:20;;;;;;;11.55;7.38;;;6.20;99.90;;;;;;4780612;30;20061;-82
2022/01/23 14:53:47;;;;;;;13.50;7.75;;;6.20;99.90;;;;;;4780839;30;20204;-81
2022/01/23 14:56:13;;;;;;;;;;;6.10;99.90;;;;;;4751889;30;20051;-82
2022/01/23 14:58:40;;;;;;;11.40;7.43;;;6.10;99.90;;;;;;4780759;30;20108;-82
2022/01/23 15:01:10;;;;;;;11.32;7.53;;;6.10;99.90;;;;;;4795618;30;20043;-82
2022/01/23 15:03:37;;;;;;;11.48;7.35;;;6.10;99.90;;;;;;4795700;30;20064;-82
2022/01/23 15:06:03;;;;;;;;;;;6.10;99.90;;;;;;4766377;30;20031;-82
2022/01/23 15:08:29;;;;;;;25.63;14.97;;;6.00;99.90;;;;;;4795776;30;19977;-82
2022/01/23 15:11:00;;;;;;;28.10;15.13;;;6.00;99.90;;;;;;4795537;30;20215;-82
2022/01/23 15:13:28;;;;;;;24.20;14.98;;;6.10;99.90;;;;;;4780849;30;20322;-82
2022/01/23 15:15:55;;;;;;;13.35;9.25;;;6.00;99.90;;;;;;4795365;30;20039;-81
2022/01/23 15:18:21;;;;;;;;;;;5.90;99.90;;;;;;4780996;30;20067;-81
2022/01/23 15:20:49;;;;;;;12.00;7.25;;;5.90;99.90;;;;;;4796905;29;19955;-82
2022/01/23 15:23:16;;;;;;;11.95;8.10;;;6.00;99.90;;;;;;4784012;30;20032;-81
2022/01/23 15:25:43;;;;;;;10.95;8.10;;;6.00;99.90;;;;;;4798752;30;20035;-82
2022/01/23 15:28:09;;;;;;;;;;;6.00;99.90;;;;;;4769348;30;20043;-82
2022/01/23 15:30:36;;;;;;;15.80;9.48;;;6.00;99.90;;;;;;4783778;30;19913;-82
2022/01/23 15:33:03;;;;;;;14.90;9.07;;;6.00;99.90;;;;;;4783834;30;20240;-82
2022/01/23 15:35:30;;;;;;;13.68;8.65;;;6.00;99.90;;;;;;4769201;30;20223;-82
2022/01/23 15:37:56;;;;;;;13.23;8.98;;;6.00;99.90;;;;;;4783707;30;20031;-82
2022/01/23 15:40:23;;;;;;;12.77;8.27;;;6.00;99.90;;;;;;4783755;30;20035;-83
2022/01/23 15:42:50;;;;;;;;;;;6.00;99.90;;;;;;4784339;30;20204;-82
2022/01/23 15:45:17;;;;;;;14.93;8.55;;;6.00;99.90;;;;;;4798541;29;19916;-82
2022/01/23 15:47:43;;;;;;;14.68;9.20;;;6.00;99.90;;;;;;4787147;30;20278;-82
2022/01/23 15:50:11;;;;;;;17.10;8.90;;;6.00;99.90;;;;;;4781304;30;20039;-82
2022/01/23 15:52:38;;;;;;;14.00;9.15;;;6.00;99.90;;;;;;4799360;30;20041;-82
2022/01/23 15:55:06;;;;;;;13.87;9.23;;;6.00;99.90;;;;;;4798430;30;20062;-82
2022/01/23 15:57:32;;;;;;;12.63;8.45;;;6.10;99.90;;;;;;4796551;30;20027;-82
2022/01/23 15:59:58;;;;;;;15.65;9.43;;;6.10;99.90;;;;;;4794896;30;20027;-81
2022/01/23 16:02:24;;;;;;;13.48;8.63;;;6.10;99.90;;;;;;4781282;30;20157;-81
2022/01/23 16:04:50;;;;;;;13.13;9.35;;;6.10;99.90;;;;;;4782730;30;20031;-82
2022/01/23 16:07:18;;;;;;;15.32;10.15;;;6.10;99.90;;;;;;4766495;30;20053;-82
2022/01/23 16:09:47;;;;;;;18.55;10.23;;;6.10;99.90;;;;;;4803331;29;20045;-82
2022/01/23 16:12:15;;;;;;;16.05;9.93;;;6.10;99.90;;;;;;4793390;30;20035;-81
2022/01/23 16:14:42;;;;;;;14.10;9.10;;;6.10;99.90;;;;;;4782357;30;20132;-81
2022/01/23 16:17:08;;;;;;;13.95;9.48;;;6.10;99.90;;;;;;4774409;30;20044;-82
2022/01/23 16:19:34;;;;;;;13.13;8.75;;;6.10;99.90;;;;;;4763132;30;20065;-82
2022/01/23 16:22:00;;;;;;;15.77;8.90;;;6.10;99.90;;;;;;4800945;29;20043;-82
2022/01/23 16:24:27;;;;;;;16.40;9.32;;;6.10;99.90;;;;;;4792465;30;20114;-82
2022/01/23 16:26:54;;;;;;;11.73;8.48;;;6.10;99.90;;;;;;4778048;30;20043;-81
2022/01/23 16:29:21;;;;;;;11.60;8.23;;;6.10;99.90;;;;;;4791288;30;20294;-82
2022/01/23 16:31:51;;;;;;;16.35;9.73;;;6.10;99.90;;;;;;4769949;30;20100;-82
2022/01/23 16:34:21;;;;;;;14.98;8.27;;;6.10;99.90;;;;;;4795155;30;20042;-81
2022/01/23 16:36:47;;;;;;;11.85;8.27;;;6.10;99.90;;;;;;4796832;30;20043;-82
2022/01/23 16:39:15;;;;;;;12.25;7.97;;;6.10;99.90;;;;;;4782510;30;20043;-82
2022/01/23 16:41:43;;;;;;;13.90;8.73;;;6.10;99.90;;;;;;4774273;30;20031;-83
2022/01/23 16:44:09;;;;;;;11.55;8.48;;;6.10;99.90;;;;;;4786515;30;20130;-82
2022/01/23 16:46:41;;;;;;;11.30;7.63;;;6.10;99.90;;;;;;4798888;29;20058;-82
2022/01/23 16:49:12;;;;;;;12.57;7.82;;;6.10;99.90;;;;;;4769222;30;20377;-82
2022/01/23 16:51:38;;;;;;;10.77;7.30;;;6.10;99.90;;;;;;4782470;30;20061;-82
2022/01/23 16:54:12;;;;;;;12.73;7.88;;;6.00;99.90;;;;;;4767433;29;20035;-82
2022/01/23 16:56:40;;;;;;;10.90;7.38;;;6.10;99.90;;;;;;4811212;29;20035;-82
2022/01/23 16:59:11;;;;;;;10.55;7.30;;;6.10;99.90;;;;;;4794364;29;20063;-82
2022/01/23 17:01:37;;;;;;;12.90;8.18;;;6.10;99.90;;;;;;4779069;30;20069;-82
2022/01/23 17:04:04;;;;;;;12.02;8.25;;;6.10;99.90;;;;;;4766557;30;20058;-82
2022/01/23 17:06:32;;;;;;;11.40;8.43;;;6.10;99.90;;;;;;4781473;30;20092;-81
2022/01/23 17:08:58;;;;;;;10.73;6.88;;;6.10;99.90;;;;;;4790878;30;20039;-81
2022/01/23 17:11:24;;;;;;;11.40;7.17;;;6.10;99.90;;;;;;4781947;30;20051;-82
2022/01/23 17:13:50;;;;;;;12.30;7.90;;;6.00;99.90;;;;;;4781421;30;20115;-81
2022/01/23 17:16:17;;;;;;;10.88;8.02;;;6.10;99.90;;;;;;4785181;30;20031;-81
2022/01/23 17:18:45;;;;;;;13.98;8.38;;;6.20;99.90;;;;;;4762534;30;20319;-81
2022/01/23 17:21:12;;;;;;;10.98;7.63;;;6.10;99.90;;;;;;4795071;30;20257;-82
2022/01/23 17:23:38;;;;;;;13.00;7.82;;;6.10;99.90;;;;;;4781174;30;20035;-81
2022/01/23 17:26:04;;;;;;;10.05;7.53;;;6.10;99.90;;;;;;4781134;30;20116;-81
2022/01/23 17:28:30;;;;;;;10.93;7.35;;;6.10;99.90;;;;;;4778660;30;20294;-82
2022/01/23 17:30:56;;;;;;;11.80;6.95;;;6.10;99.90;;;;;;4780124;30;20039;-82
2022/01/23 17:33:22;;;;;;;11.80;7.88;;;6.10;99.90;;;;;;4778712;30;20255;-81
2022/01/23 17:35:48;;;;;;;10.73;7.53;;;6.10;99.90;;;;;;4781932;30;20067;-81
2022/01/23 17:38:14;;;;;;;10.32;7.28;;;6.10;99.90;;;;;;4796446;30;20040;-82
2022/01/23 17:40:40;;;;;;;11.32;7.55;;;6.10;99.90;;;;;;4780055;30;20054;-82
2022/01/23 17:43:07;;;;;;;12.77;7.10;;;6.10;99.90;;;;;;4780709;29;20099;-82
2022/01/23 17:45:39;;;;;;;11.43;8.13;;;6.10;99.90;;;;;;4781588;29;20027;-82
2022/01/23 17:48:30;;;;;;;13.77;7.93;;;6.10;99.90;;;;;;4783365;29;20254;-81
2022/01/23 17:50:56;;;;;;;11.15;7.18;;;6.10;99.90;;;;;;4757745;30;20045;-82
2022/01/23 17:53:22;;;;;;;11.20;7.67;;;6.10;99.90;;;;;;4793720;30;20023;-83
2022/01/23 17:55:48;;;;;;;10.73;7.53;;;6.10;99.90;;;;;;4778635;30;20043;-82
2022/01/23 17:58:15;;;;;;;12.30;8.23;;;6.10;99.90;;;;;;4780565;30;20102;-83
2022/01/23 18:00:41;;;;;;;11.95;7.70;;;6.10;99.90;;;;;;4784987;30;20027;-82
2022/01/23 18:03:07;;;;;;;10.57;7.65;;;6.10;99.90;;;;;;4780743;30;20043;-82
2022/01/23 18:05:34;;;;;;;12.73;8.35;;;6.00;99.90;;;;;;4777751;30;20050;-82
2022/01/23 18:08:04;;;;;;;;;;;6.00;99.90;;;;;;4793878;30;20081;-83
2022/01/23 18:10:30;;;;;;;14.38;8.50;;;6.00;99.90;;;;;;4767443;30;19929;-82
2022/01/23 18:12:57;;;;;;;11.07;7.13;;;6.00;99.90;;;;;;4780938;30;20059;-82
2022/01/23 18:15:24;;;;;;;10.60;7.88;;;5.90;99.90;;;;;;4748955;30;20040;-82
2022/01/23 18:17:50;;;;;;;12.30;8.27;;;5.90;99.90;;;;;;4782494;30;20027;-82
2022/01/23 18:20:18;;;;;;;15.85;8.43;;;5.90;99.90;;;;;;4780340;30;20265;-82
2022/01/23 18:22:47;;;;;;;;;;;5.90;99.90;;;;;;4780236;30;20031;-82
2022/01/23 18:25:19;;;;;;;10.15;7.25;;;5.90;99.90;;;;;;4794995;30;20120;-82
2022/01/23 18:27:45;;;;;;;12.98;9.45;;;5.90;99.90;;;;;;4780344;30;20043;-82
2022/01/23 18:30:11;;;;;;;14.15;9.23;;;5.90;99.90;;;;;;4778513;30;20071;-82
2022/01/23 18:32:37;;;;;;;13.35;8.50;;;5.90;99.90;;;;;;4779394;30;20031;-82
2022/01/23 18:35:04;;;;;;;13.45;8.52;;;6.00;99.90;;;;;;4779828;30;20110;-83
2022/01/23 18:37:32;;;;;;;15.50;8.98;;;6.00;99.90;;;;;;4778791;30;20039;-83
2022/01/23 18:39:58;;;;;;;12.27;7.68;;;6.00;99.90;;;;;;4779870;30;20047;-83
2022/01/23 18:42:24;;;;;;;12.45;8.45;;;6.00;99.90;;;;;;4750989;30;20089;-83